Terminal Aerodrome Forecast
Issued by NWS Cleveland, OH

Home | Current Version | Previous Version | Text Only | Print | Product List | Glossary Off
Versions: 1 2 3 4 5 6 7 8 9 10 11 12 13 14 15 16 17 18 19 20 21 22

887
FTUS41 KCLE 091120
TAFERI
TAF
KERI 091120Z 0912/1012 18012KT P6SM SCT250
     FM091600 20010KT P6SM BKN100
     FM100100 25008KT P6SM OVC030
     FM100300 27010KT P6SM VCSH OVC025
     FM100500 28012G20KT 4SM -SHSN OVC015
      TEMPO 1006/1010 1SM -SN OVC010=

USA.gov is the U.S. government's official web portal to all federal, state and local government web resources and services.